sensor_id;sensor_type;location;lat;lon;timestamp;temperature;humidity
53208;DHT22;39093;52.788;6.940;2023-02-26T00:01:30;1.30;99.90
53208;DHT22;39093;52.788;6.940;2023-02-26T00:04:00;1.30;99.90
53208;DHT22;39093;52.788;6.940;2023-02-26T00:06:32;1.20;99.90
53208;DHT22;39093;52.788;6.940;2023-02-26T00:08:59;1.20;99.90
53208;DHT22;39093;52.788;6.940;2023-02-26T00:11:26;1.20;99.90
53208;DHT22;39093;52.788;6.940;2023-02-26T00:13:53;1.10;99.90
53208;DHT22;39093;52.788;6.940;2023-02-26T00:16:34;1.10;99.90
53208;DHT22;39093;52.788;6.940;2023-02-26T00:19:05;1.10;99.90
53208;DHT22;39093;52.788;6.940;2023-02-26T00:21:34;0.60;99.90
53208;DHT22;39093;52.788;6.940;2023-02-26T00:24:01;1.00;99.90
53208;DHT22;39093;52.788;6.940;2023-02-26T00:26:29;1.00;99.90
53208;DHT22;39093;52.788;6.940;2023-02-26T00:28:58;1.20;99.90
53208;DHT22;39093;52.788;6.940;2023-02-26T00:31:25;1.00;99.90
53208;DHT22;39093;52.788;6.940;2023-02-26T00:33:53;0.90;99.90
53208;DHT22;39093;52.788;6.940;2023-02-26T00:36:41;0.90;99.90
53208;DHT22;39093;52.788;6.940;2023-02-26T00:42:14;0.80;99.90
53208;DHT22;39093;52.788;6.940;2023-02-26T00:44:42;0.80;99.90
53208;DHT22;39093;52.788;6.940;2023-02-26T00:48:01;0.80;99.90
53208;DHT22;39093;52.788;6.940;2023-02-26T00:50:25;0.80;99.90
53208;DHT22;39093;52.788;6.940;2023-02-26T00:53:03;0.70;99.90
53208;DHT22;39093;52.788;6.940;2023-02-26T00:55:33;0.70;99.90
53208;DHT22;39093;52.788;6.940;2023-02-26T00:58:00;0.70;99.90
53208;DHT22;39093;52.788;6.940;2023-02-26T01:00:27;0.70;99.90
53208;DHT22;39093;52.788;6.940;2023-02-26T01:02:54;0.70;99.90
53208;DHT22;39093;52.788;6.940;2023-02-26T01:05:21;0.70;99.90
53208;DHT22;39093;52.788;6.940;2023-02-26T01:10:43;0.60;99.90
53208;DHT22;39093;52.788;6.940;2023-02-26T01:13:10;0.60;99.90
53208;DHT22;39093;52.788;6.940;2023-02-26T01:15:39;0.50;99.90
53208;DHT22;39093;52.788;6.940;2023-02-26T01:18:27;0.50;99.90
53208;DHT22;39093;52.788;6.940;2023-02-26T01:21:03;0.50;99.90
53208;DHT22;39093;52.788;6.940;2023-02-26T01:23:35;0.50;99.90
53208;DHT22;39093;52.788;6.940;2023-02-26T01:26:17;0.50;99.90
53208;DHT22;39093;52.788;6.940;2023-02-26T01:28:46;0.50;99.90
53208;DHT22;39093;52.788;6.940;2023-02-26T01:34:23;0.40;99.90
53208;DHT22;39093;52.788;6.940;2023-02-26T01:36:57;0.40;99.90
53208;DHT22;39093;52.788;6.940;2023-02-26T01:39:38;0.40;99.90
53208;DHT22;39093;52.788;6.940;2023-02-26T01:42:19;0.40;99.90
53208;DHT22;39093;52.788;6.940;2023-02-26T01:44:51;0.40;99.90
53208;DHT22;39093;52.788;6.940;2023-02-26T01:49:54;0.30;99.90
53208;DHT22;39093;52.788;6.940;2023-02-26T01:55:21;0.30;99.90
53208;DHT22;39093;52.788;6.940;2023-02-26T01:57:50;0.30;99.90
53208;DHT22;39093;52.788;6.940;2023-02-26T02:00:18;0.30;99.90
53208;DHT22;39093;52.788;6.940;2023-02-26T02:02:45;0.20;99.90
53208;DHT22;39093;52.788;6.940;2023-02-26T02:05:31;0.30;99.90
53208;DHT22;39093;52.788;6.940;2023-02-26T02:07:59;0.20;99.90
53208;DHT22;39093;52.788;6.940;2023-02-26T02:10:27;0.20;99.90
53208;DHT22;39093;52.788;6.940;2023-02-26T02:15:40;0.20;99.90
53208;DHT22;39093;52.788;6.940;2023-02-26T02:19:25;0.20;99.90
53208;DHT22;39093;52.788;6.940;2023-02-26T02:24:12;0.20;99.90
53208;DHT22;39093;52.788;6.940;2023-02-26T02:27:01;0.10;99.90
53208;DHT22;39093;52.788;6.940;2023-02-26T02:32:27;0.10;99.90
53208;DHT22;39093;52.788;6.940;2023-02-26T02:35:21;0.10;99.90
53208;DHT22;39093;52.788;6.940;2023-02-26T02:38:03;0.10;99.90
53208;DHT22;39093;52.788;6.940;2023-02-26T02:40:34;0.10;99.90
53208;DHT22;39093;52.788;6.940;2023-02-26T02:43:15;0.00;99.90
53208;DHT22;39093;52.788;6.940;2023-02-26T02:45:49;0.00;99.90
53208;DHT22;39093;52.788;6.940;2023-02-26T02:48:21;0.00;99.90
53208;DHT22;39093;52.788;6.940;2023-02-26T02:50:56;0.00;99.90
53208;DHT22;39093;52.788;6.940;2023-02-26T02:53:26;0.00;99.90
53208;DHT22;39093;52.788;6.940;2023-02-26T02:55:59;0.00;99.90
53208;DHT22;39093;52.788;6.940;2023-02-26T02:58:35;0.00;99.90
53208;DHT22;39093;52.788;6.940;2023-02-26T03:01:06;0.00;99.90
53208;DHT22;39093;52.788;6.940;2023-02-26T03:03:54;-0.10;99.90
53208;DHT22;39093;52.788;6.940;2023-02-26T03:06:22;-0.10;99.90
53208;DHT22;39093;52.788;6.940;2023-02-26T03:08:49;0.10;99.90
53208;DHT22;39093;52.788;6.940;2023-02-26T03:11:17;0.00;99.90
53208;DHT22;39093;52.788;6.940;2023-02-26T03:13:45;0.00;99.90
53208;DHT22;39093;52.788;6.940;2023-02-26T03:19:04;-0.10;99.90
53208;DHT22;39093;52.788;6.940;2023-02-26T03:21:48;-0.10;99.90
53208;DHT22;39093;52.788;6.940;2023-02-26T03:26:55;-0.10;99.90
53208;DHT22;39093;52.788;6.940;2023-02-26T03:29:39;-0.10;99.90
53208;DHT22;39093;52.788;6.940;2023-02-26T03:32:14;-0.10;99.90
53208;DHT22;39093;52.788;6.940;2023-02-26T03:34:48;-0.10;99.90
53208;DHT22;39093;52.788;6.940;2023-02-26T03:37:25;-0.10;99.90
53208;DHT22;39093;52.788;6.940;2023-02-26T03:39:58;-0.10;99.90
53208;DHT22;39093;52.788;6.940;2023-02-26T03:42:33;-0.10;99.90
53208;DHT22;39093;52.788;6.940;2023-02-26T03:45:06;-0.10;99.90
53208;DHT22;39093;52.788;6.940;2023-02-26T03:47:35;-0.20;99.90
53208;DHT22;39093;52.788;6.940;2023-02-26T03:50:14;-0.10;99.90
53208;DHT22;39093;52.788;6.940;2023-02-26T03:52:45;-0.20;99.90
53208;DHT22;39093;52.788;6.940;2023-02-26T03:55:20;-0.20;99.90
53208;DHT22;39093;52.788;6.940;2023-02-26T03:57:48;-0.10;99.90
53208;DHT22;39093;52.788;6.940;2023-02-26T04:00:16;-0.20;99.90
53208;DHT22;39093;52.788;6.940;2023-02-26T04:03:13;-0.20;99.90
53208;DHT22;39093;52.788;6.940;2023-02-26T04:05:46;-0.20;99.90
53208;DHT22;39093;52.788;6.940;2023-02-26T04:08:14;-0.20;99.90
53208;DHT22;39093;52.788;6.940;2023-02-26T04:10:46;-0.20;99.90
53208;DHT22;39093;52.788;6.940;2023-02-26T04:13:17;-0.20;99.90
53208;DHT22;39093;52.788;6.940;2023-02-26T04:15:44;-0.20;99.90
53208;DHT22;39093;52.788;6.940;2023-02-26T04:18:11;-0.30;99.90
53208;DHT22;39093;52.788;6.940;2023-02-26T04:20:38;-0.20;99.90
53208;DHT22;39093;52.788;6.940;2023-02-26T04:23:05;-0.10;99.90
53208;DHT22;39093;52.788;6.940;2023-02-26T04:25:32;-0.20;99.90
53208;DHT22;39093;52.788;6.940;2023-02-26T04:27:58;-0.30;99.90
53208;DHT22;39093;52.788;6.940;2023-02-26T04:30:25;-0.30;99.90
53208;DHT22;39093;52.788;6.940;2023-02-26T04:32:52;-0.30;99.90
53208;DHT22;39093;52.788;6.940;2023-02-26T04:35:19;-0.30;99.90
53208;DHT22;39093;52.788;6.940;2023-02-26T04:37:46;-0.30;99.90
53208;DHT22;39093;52.788;6.940;2023-02-26T04:40:13;-0.40;99.90
53208;DHT22;39093;52.788;6.940;2023-02-26T04:42:40;-0.30;99.90
53208;DHT22;39093;52.788;6.940;2023-02-26T04:45:07;-0.40;99.90
53208;DHT22;39093;52.788;6.940;2023-02-26T04:47:34;-0.30;99.90
53208;DHT22;39093;52.788;6.940;2023-02-26T04:50:01;-0.40;99.90
53208;DHT22;39093;52.788;6.940;2023-02-26T04:52:28;-0.40;99.90
53208;DHT22;39093;52.788;6.940;2023-02-26T04:54:54;-0.40;99.90
53208;DHT22;39093;52.788;6.940;2023-02-26T04:57:21;-0.40;99.90
53208;DHT22;39093;52.788;6.940;2023-02-26T04:59:48;-0.40;99.90
53208;DHT22;39093;52.788;6.940;2023-02-26T05:02:15;-0.40;99.90
53208;DHT22;39093;52.788;6.940;2023-02-26T05:04:42;-0.40;99.90
53208;DHT22;39093;52.788;6.940;2023-02-26T05:07:09;-0.40;99.90
53208;DHT22;39093;52.788;6.940;2023-02-26T05:09:36;-0.40;99.90
53208;DHT22;39093;52.788;6.940;2023-02-26T05:12:03;-0.30;99.90
53208;DHT22;39093;52.788;6.940;2023-02-26T05:14:30;-0.40;99.90
53208;DHT22;39093;52.788;6.940;2023-02-26T05:16:56;-0.40;99.90
53208;DHT22;39093;52.788;6.940;2023-02-26T05:19:23;-0.40;99.90
53208;DHT22;39093;52.788;6.940;2023-02-26T05:21:50;-0.40;99.90
53208;DHT22;39093;52.788;6.940;2023-02-26T05:24:17;-0.40;99.90
53208;DHT22;39093;52.788;6.940;2023-02-26T05:26:44;-0.40;99.90
53208;DHT22;39093;52.788;6.940;2023-02-26T05:29:13;-0.30;99.90
53208;DHT22;39093;52.788;6.940;2023-02-26T05:31:40;-0.40;99.90
53208;DHT22;39093;52.788;6.940;2023-02-26T05:34:07;-0.50;99.90
53208;DHT22;39093;52.788;6.940;2023-02-26T05:36:35;-0.50;99.90
53208;DHT22;39093;52.788;6.940;2023-02-26T05:39:02;-0.50;99.90
53208;DHT22;39093;52.788;6.940;2023-02-26T05:41:28;-0.50;99.90
53208;DHT22;39093;52.788;6.940;2023-02-26T05:43:55;-0.50;99.90
53208;DHT22;39093;52.788;6.940;2023-02-26T05:46:22;-0.50;99.90
53208;DHT22;39093;52.788;6.940;2023-02-26T05:48:50;-0.50;99.90
53208;DHT22;39093;52.788;6.940;2023-02-26T05:51:17;-0.50;99.90
53208;DHT22;39093;52.788;6.940;2023-02-26T05:53:44;-0.50;99.90
53208;DHT22;39093;52.788;6.940;2023-02-26T05:56:11;-0.50;99.90
53208;DHT22;39093;52.788;6.940;2023-02-26T05:58:38;-0.50;99.90
53208;DHT22;39093;52.788;6.940;2023-02-26T06:01:05;-0.60;99.90
53208;DHT22;39093;52.788;6.940;2023-02-26T06:03:32;-0.60;99.90
53208;DHT22;39093;52.788;6.940;2023-02-26T06:05:59;-0.50;99.90
53208;DHT22;39093;52.788;6.940;2023-02-26T06:08:26;-0.50;99.90
53208;DHT22;39093;52.788;6.940;2023-02-26T06:10:53;-0.60;99.90
53208;DHT22;39093;52.788;6.940;2023-02-26T06:13:20;-0.60;99.90
53208;DHT22;39093;52.788;6.940;2023-02-26T06:15:49;-0.60;99.90
53208;DHT22;39093;52.788;6.940;2023-02-26T06:18:17;-0.60;99.90
53208;DHT22;39093;52.788;6.940;2023-02-26T06:20:44;-0.60;99.90
53208;DHT22;39093;52.788;6.940;2023-02-26T06:23:11;-0.60;99.90
53208;DHT22;39093;52.788;6.940;2023-02-26T06:25:41;-0.60;99.90
53208;DHT22;39093;52.788;6.940;2023-02-26T06:28:08;-0.70;99.90
53208;DHT22;39093;52.788;6.940;2023-02-26T06:30:35;-0.60;99.90
53208;DHT22;39093;52.788;6.940;2023-02-26T06:33:02;-0.70;99.90
53208;DHT22;39093;52.788;6.940;2023-02-26T06:35:29;-0.70;99.90
53208;DHT22;39093;52.788;6.940;2023-02-26T06:37:56;-0.70;99.90
53208;DHT22;39093;52.788;6.940;2023-02-26T06:40:23;-0.70;99.90
53208;DHT22;39093;52.788;6.940;2023-02-26T06:42:50;-0.30;99.90
53208;DHT22;39093;52.788;6.940;2023-02-26T06:45:17;-0.70;99.90
53208;DHT22;39093;52.788;6.940;2023-02-26T06:47:44;-0.70;99.90
53208;DHT22;39093;52.788;6.940;2023-02-26T06:50:11;-0.70;99.90
53208;DHT22;39093;52.788;6.940;2023-02-26T06:52:38;-0.70;99.90
53208;DHT22;39093;52.788;6.940;2023-02-26T06:55:05;-0.70;99.90
53208;DHT22;39093;52.788;6.940;2023-02-26T06:57:32;-0.70;99.90
53208;DHT22;39093;52.788;6.940;2023-02-26T06:59:59;-0.70;99.90
53208;DHT22;39093;52.788;6.940;2023-02-26T07:02:27;-0.70;99.90
53208;DHT22;39093;52.788;6.940;2023-02-26T07:04:54;-0.70;99.90
53208;DHT22;39093;52.788;6.940;2023-02-26T07:07:21;-0.60;99.90
53208;DHT22;39093;52.788;6.940;2023-02-26T07:09:47;-0.60;99.90
53208;DHT22;39093;52.788;6.940;2023-02-26T07:12:15;-0.60;99.90
53208;DHT22;39093;52.788;6.940;2023-02-26T07:14:42;-0.20;99.90
53208;DHT22;39093;52.788;6.940;2023-02-26T07:17:09;-0.60;99.90
53208;DHT22;39093;52.788;6.940;2023-02-26T07:19:36;-0.50;99.90
53208;DHT22;39093;52.788;6.940;2023-02-26T07:22:03;-0.50;99.90
53208;DHT22;39093;52.788;6.940;2023-02-26T07:24:29;-0.50;99.90
53208;DHT22;39093;52.788;6.940;2023-02-26T07:26:56;-0.50;99.90
53208;DHT22;39093;52.788;6.940;2023-02-26T07:29:23;-0.40;99.90
53208;DHT22;39093;52.788;6.940;2023-02-26T07:31:50;-0.20;99.90
53208;DHT22;39093;52.788;6.940;2023-02-26T07:34:17;-0.40;99.90
53208;DHT22;39093;52.788;6.940;2023-02-26T07:36:44;-0.40;99.90
53208;DHT22;39093;52.788;6.940;2023-02-26T07:39:11;-0.30;99.90
53208;DHT22;39093;52.788;6.940;2023-02-26T07:41:38;-0.30;99.90
53208;DHT22;39093;52.788;6.940;2023-02-26T07:44:05;-0.30;99.90
53208;DHT22;39093;52.788;6.940;2023-02-26T07:46:32;-0.30;99.90
53208;DHT22;39093;52.788;6.940;2023-02-26T07:48:59;-0.30;99.90
53208;DHT22;39093;52.788;6.940;2023-02-26T07:51:26;-0.20;99.90
53208;DHT22;39093;52.788;6.940;2023-02-26T07:53:53;-0.20;99.90
53208;DHT22;39093;52.788;6.940;2023-02-26T07:56:20;-0.20;99.90
53208;DHT22;39093;52.788;6.940;2023-02-26T07:58:47;-0.20;99.90
53208;DHT22;39093;52.788;6.940;2023-02-26T08:01:14;-0.20;99.90
53208;DHT22;39093;52.788;6.940;2023-02-26T08:03:41;-0.10;99.90
53208;DHT22;39093;52.788;6.940;2023-02-26T08:06:08;0.00;99.90
53208;DHT22;39093;52.788;6.940;2023-02-26T08:08:35;0.40;99.90
53208;DHT22;39093;52.788;6.940;2023-02-26T08:11:02;0.10;99.90
53208;DHT22;39093;52.788;6.940;2023-02-26T08:13:29;0.10;99.90
53208;DHT22;39093;52.788;6.940;2023-02-26T08:15:56;0.20;99.90
53208;DHT22;39093;52.788;6.940;2023-02-26T08:18:23;0.20;99.90
53208;DHT22;39093;52.788;6.940;2023-02-26T08:20:50;0.30;99.90
53208;DHT22;39093;52.788;6.940;2023-02-26T08:23:18;0.30;99.90
53208;DHT22;39093;52.788;6.940;2023-02-26T08:25:45;0.30;99.90
53208;DHT22;39093;52.788;6.940;2023-02-26T08:28:12;0.30;99.90
53208;DHT22;39093;52.788;6.940;2023-02-26T08:30:39;0.30;99.90
53208;DHT22;39093;52.788;6.940;2023-02-26T08:33:06;0.40;99.90
53208;DHT22;39093;52.788;6.940;2023-02-26T08:35:33;0.40;99.90
53208;DHT22;39093;52.788;6.940;2023-02-26T08:38:00;0.50;99.90
53208;DHT22;39093;52.788;6.940;2023-02-26T08:40:26;0.50;99.90
53208;DHT22;39093;52.788;6.940;2023-02-26T08:42:53;0.50;99.90
53208;DHT22;39093;52.788;6.940;2023-02-26T08:45:20;0.50;99.90
53208;DHT22;39093;52.788;6.940;2023-02-26T08:47:47;0.70;99.90
53208;DHT22;39093;52.788;6.940;2023-02-26T08:50:23;0.70;99.90
53208;DHT22;39093;52.788;6.940;2023-02-26T08:52:51;0.60;99.90
53208;DHT22;39093;52.788;6.940;2023-02-26T08:55:18;0.60;99.90
53208;DHT22;39093;52.788;6.940;2023-02-26T08:57:45;0.70;99.90
53208;DHT22;39093;52.788;6.940;2023-02-26T09:00:12;0.80;99.90
53208;DHT22;39093;52.788;6.940;2023-02-26T09:02:42;0.80;99.90
53208;DHT22;39093;52.788;6.940;2023-02-26T09:05:09;0.80;99.90
53208;DHT22;39093;52.788;6.940;2023-02-26T09:07:36;0.80;99.90
53208;DHT22;39093;52.788;6.940;2023-02-26T09:10:04;1.30;99.90
53208;DHT22;39093;52.788;6.940;2023-02-26T09:12:32;0.90;99.90
53208;DHT22;39093;52.788;6.940;2023-02-26T09:15:00;1.00;99.90
53208;DHT22;39093;52.788;6.940;2023-02-26T09:17:30;1.10;99.90
53208;DHT22;39093;52.788;6.940;2023-02-26T09:19:59;1.10;99.90
53208;DHT22;39093;52.788;6.940;2023-02-26T09:22:26;1.20;99.90
53208;DHT22;39093;52.788;6.940;2023-02-26T09:24:53;1.20;99.90
53208;DHT22;39093;52.788;6.940;2023-02-26T09:27:20;1.30;99.90
53208;DHT22;39093;52.788;6.940;2023-02-26T09:29:47;1.30;99.90
53208;DHT22;39093;52.788;6.940;2023-02-26T09:32:17;1.40;99.90
53208;DHT22;39093;52.788;6.940;2023-02-26T09:34:48;1.40;99.90
53208;DHT22;39093;52.788;6.940;2023-02-26T09:37:19;1.50;99.90
53208;DHT22;39093;52.788;6.940;2023-02-26T09:39:47;1.50;99.90
53208;DHT22;39093;52.788;6.940;2023-02-26T09:45:36;1.60;99.90
53208;DHT22;39093;52.788;6.940;2023-02-26T09:48:29;1.70;99.90
53208;DHT22;39093;52.788;6.940;2023-02-26T09:50:58;1.70;99.90
53208;DHT22;39093;52.788;6.940;2023-02-26T09:53:36;1.70;99.90
53208;DHT22;39093;52.788;6.940;2023-02-26T09:56:21;1.80;99.90
53208;DHT22;39093;52.788;6.940;2023-02-26T09:58:50;1.90;99.90
53208;DHT22;39093;52.788;6.940;2023-02-26T10:12:23;2.20;99.90
53208;DHT22;39093;52.788;6.940;2023-02-26T10:14:53;2.30;99.90
53208;DHT22;39093;52.788;6.940;2023-02-26T10:17:37;2.40;99.90
53208;DHT22;39093;52.788;6.940;2023-02-26T10:20:24;2.50;99.90
53208;DHT22;39093;52.788;6.940;2023-02-26T10:23:28;2.60;99.90
53208;DHT22;39093;52.788;6.940;2023-02-26T10:26:01;2.70;99.90
53208;DHT22;39093;52.788;6.940;2023-02-26T10:31:00;2.90;99.90
53208;DHT22;39093;52.788;6.940;2023-02-26T10:33:44;3.00;99.90
53208;DHT22;39093;52.788;6.940;2023-02-26T10:36:28;3.00;99.90
53208;DHT22;39093;52.788;6.940;2023-02-26T10:39:11;3.10;99.90
53208;DHT22;39093;52.788;6.940;2023-02-26T10:41:41;3.10;99.90
53208;DHT22;39093;52.788;6.940;2023-02-26T10:44:17;3.20;99.90
53208;DHT22;39093;52.788;6.940;2023-02-26T10:49:35;3.30;99.90
53208;DHT22;39093;52.788;6.940;2023-02-26T10:52:16;3.50;99.90
53208;DHT22;39093;52.788;6.940;2023-02-26T10:58:35;3.60;99.90
53208;DHT22;39093;52.788;6.940;2023-02-26T11:00:38;3.70;99.90
53208;DHT22;39093;52.788;6.940;2023-02-26T11:03:09;4.00;99.90
53208;DHT22;39093;52.788;6.940;2023-02-26T11:05:38;4.30;99.90
53208;DHT22;39093;52.788;6.940;2023-02-26T11:08:19;4.60;99.90
53208;DHT22;39093;52.788;6.940;2023-02-26T11:10:59;4.80;99.90
53208;DHT22;39093;52.788;6.940;2023-02-26T11:13:29;4.90;99.90
53208;DHT22;39093;52.788;6.940;2023-02-26T11:16:00;5.10;99.90
53208;DHT22;39093;52.788;6.940;2023-02-26T11:18:54;5.10;99.90
53208;DHT22;39093;52.788;6.940;2023-02-26T11:21:27;5.00;99.90
53208;DHT22;39093;52.788;6.940;2023-02-26T11:24:02;5.00;99.90
53208;DHT22;39093;52.788;6.940;2023-02-26T11:26:34;5.00;99.90
53208;DHT22;39093;52.788;6.940;2023-02-26T11:29:02;5.00;99.90
53208;DHT22;39093;52.788;6.940;2023-02-26T11:31:29;5.00;99.90
53208;DHT22;39093;52.788;6.940;2023-02-26T11:34:03;5.10;99.90
53208;DHT22;39093;52.788;6.940;2023-02-26T11:36:32;5.20;99.90
53208;DHT22;39093;52.788;6.940;2023-02-26T11:41:36;5.40;99.70
53208;DHT22;39093;52.788;6.940;2023-02-26T11:44:06;5.50;99.20
53208;DHT22;39093;52.788;6.940;2023-02-26T11:46:41;5.90;99.30
53208;DHT22;39093;52.788;6.940;2023-02-26T11:49:16;6.20;97.40
53208;DHT22;39093;52.788;6.940;2023-02-26T11:51:45;6.70;94.30
53208;DHT22;39093;52.788;6.940;2023-02-26T11:54:23;7.00;93.70
53208;DHT22;39093;52.788;6.940;2023-02-26T11:57:06;7.10;95.50
53208;DHT22;39093;52.788;6.940;2023-02-26T11:59:34;7.80;92.40
53208;DHT22;39093;52.788;6.940;2023-02-26T12:02:07;8.40;92.90
53208;DHT22;39093;52.788;6.940;2023-02-26T12:04:38;9.20;91.40
53208;DHT22;39093;52.788;6.940;2023-02-26T12:07:15;9.80;89.60
53208;DHT22;39093;52.788;6.940;2023-02-26T12:09:43;10.80;87.80
53208;DHT22;39093;52.788;6.940;2023-02-26T12:21:14;12.80;74.40
53208;DHT22;39093;52.788;6.940;2023-02-26T12:23:57;13.40;73.80
53208;DHT22;39093;52.788;6.940;2023-02-26T12:29:47;13.80;73.30
53208;DHT22;39093;52.788;6.940;2023-02-26T12:33:14;13.20;68.40
53208;DHT22;39093;52.788;6.940;2023-02-26T12:38:15;13.60;67.40
53208;DHT22;39093;52.788;6.940;2023-02-26T12:41:19;14.00;66.30
53208;DHT22;39093;52.788;6.940;2023-02-26T12:43:53;14.50;65.10
53208;DHT22;39093;52.788;6.940;2023-02-26T13:09:13;9.40;73.80
53208;DHT22;39093;52.788;6.940;2023-02-26T13:14:48;10.00;73.50
53208;DHT22;39093;52.788;6.940;2023-02-26T13:22:47;13.00;69.10
53208;DHT22;39093;52.788;6.940;2023-02-26T13:28:18;14.00;66.30
53208;DHT22;39093;52.788;6.940;2023-02-26T13:30:50;14.20;65.90
53208;DHT22;39093;52.788;6.940;2023-02-26T13:33:22;14.70;64.50
53208;DHT22;39093;52.788;6.940;2023-02-26T13:35:52;15.10;64.60
53208;DHT22;39093;52.788;6.940;2023-02-26T13:50:11;15.50;61.80
53208;DHT22;39093;52.788;6.940;2023-02-26T13:52:50;15.60;61.10
53208;DHT22;39093;52.788;6.940;2023-02-26T13:56:05;16.00;61.90
53208;DHT22;39093;52.788;6.940;2023-02-26T13:58:39;16.30;58.90
53208;DHT22;39093;52.788;6.940;2023-02-26T14:01:13;15.50;57.90
53208;DHT22;39093;52.788;6.940;2023-02-26T14:03:52;15.00;61.00
53208;DHT22;39093;52.788;6.940;2023-02-26T14:06:23;15.70;60.60
53208;DHT22;39093;52.788;6.940;2023-02-26T14:08:54;15.40;59.60
53208;DHT22;39093;52.788;6.940;2023-02-26T14:14:11;15.60;59.60
53208;DHT22;39093;52.788;6.940;2023-02-26T14:16:41;15.70;58.70
53208;DHT22;39093;52.788;6.940;2023-02-26T14:21:48;15.70;58.60
53208;DHT22;39093;52.788;6.940;2023-02-26T14:27:22;14.90;57.60
53208;DHT22;39093;52.788;6.940;2023-02-26T14:35:38;12.90;61.50
53208;DHT22;39093;52.788;6.940;2023-02-26T14:40:58;14.20;59.40
53208;DHT22;39093;52.788;6.940;2023-02-26T14:45:57;13.30;62.00
53208;DHT22;39093;52.788;6.940;2023-02-26T14:48:25;13.20;62.00
53208;DHT22;39093;52.788;6.940;2023-02-26T14:56:51;13.40;62.40
53208;DHT22;39093;52.788;6.940;2023-02-26T15:02:43;13.20;63.10
53208;DHT22;39093;52.788;6.940;2023-02-26T15:08:08;12.60;62.50
53208;DHT22;39093;52.788;6.940;2023-02-26T15:24:41;10.50;66.60
53208;DHT22;39093;52.788;6.940;2023-02-26T15:27:15;9.90;68.20
53208;DHT22;39093;52.788;6.940;2023-02-26T15:29:43;9.00;69.70
53208;DHT22;39093;52.788;6.940;2023-02-26T15:35:02;8.60;73.10
53208;DHT22;39093;52.788;6.940;2023-02-26T15:37:30;8.00;74.10
53208;DHT22;39093;52.788;6.940;2023-02-26T15:40:00;7.60;75.20
53208;DHT22;39093;52.788;6.940;2023-02-26T15:42:33;7.50;76.50
53208;DHT22;39093;52.788;6.940;2023-02-26T15:45:07;7.30;77.00
53208;DHT22;39093;52.788;6.940;2023-02-26T15:47:38;7.10;79.70
53208;DHT22;39093;52.788;6.940;2023-02-26T15:50:48;6.90;80.50
53208;DHT22;39093;52.788;6.940;2023-02-26T15:53:28;6.80;81.60
53208;DHT22;39093;52.788;6.940;2023-02-26T15:55:57;6.90;81.70
53208;DHT22;39093;52.788;6.940;2023-02-26T15:58:51;6.90;83.00
53208;DHT22;39093;52.788;6.940;2023-02-26T16:01:47;6.80;81.00
53208;DHT22;39093;52.788;6.940;2023-02-26T16:04:22;6.80;82.20
53208;DHT22;39093;52.788;6.940;2023-02-26T16:06:55;6.60;83.20
53208;DHT22;39093;52.788;6.940;2023-02-26T16:09:33;6.50;84.00
53208;DHT22;39093;52.788;6.940;2023-02-26T16:12:16;6.20;84.50
53208;DHT22;39093;52.788;6.940;2023-02-26T16:14:48;6.40;85.50
53208;DHT22;39093;52.788;6.940;2023-02-26T16:17:24;6.10;87.20
53208;DHT22;39093;52.788;6.940;2023-02-26T16:19:52;5.70;88.40
53208;DHT22;39093;52.788;6.940;2023-02-26T16:22:28;5.60;90.00
53208;DHT22;39093;52.788;6.940;2023-02-26T16:27:52;5.40;90.60
53208;DHT22;39093;52.788;6.940;2023-02-26T16:30:28;5.10;91.50
53208;DHT22;39093;52.788;6.940;2023-02-26T16:32:57;5.10;92.60
53208;DHT22;39093;52.788;6.940;2023-02-26T16:35:31;5.10;92.80
53208;DHT22;39093;52.788;6.940;2023-02-26T16:38:43;5.10;93.30
53208;DHT22;39093;52.788;6.940;2023-02-26T16:41:09;5.50;93.80
53208;DHT22;39093;52.788;6.940;2023-02-26T16:43:58;4.90;94.30
53208;DHT22;39093;52.788;6.940;2023-02-26T16:46:40;5.00;94.20
53208;DHT22;39093;52.788;6.940;2023-02-26T16:49:29;4.90;95.40
53208;DHT22;39093;52.788;6.940;2023-02-26T16:51:57;4.80;95.40
53208;DHT22;39093;52.788;6.940;2023-02-26T16:54:29;4.80;95.80
53208;DHT22;39093;52.788;6.940;2023-02-26T16:57:02;4.60;95.90
53208;DHT22;39093;52.788;6.940;2023-02-26T16:59:31;4.60;95.70
53208;DHT22;39093;52.788;6.940;2023-02-26T17:02:02;4.80;96.10
53208;DHT22;39093;52.788;6.940;2023-02-26T17:04:39;4.60;95.70
53208;DHT22;39093;52.788;6.940;2023-02-26T17:07:36;4.50;96.40
53208;DHT22;39093;52.788;6.940;2023-02-26T17:10:38;4.60;96.80
53208;DHT22;39093;52.788;6.940;2023-02-26T17:13:27;4.50;97.40
53208;DHT22;39093;52.788;6.940;2023-02-26T17:15:58;4.50;97.70
53208;DHT22;39093;52.788;6.940;2023-02-26T17:18:27;4.40;97.50
53208;DHT22;39093;52.788;6.940;2023-02-26T17:20:54;4.50;97.70
53208;DHT22;39093;52.788;6.940;2023-02-26T17:23:27;4.30;97.90
53208;DHT22;39093;52.788;6.940;2023-02-26T17:25:56;4.30;98.10
53208;DHT22;39093;52.788;6.940;2023-02-26T17:28:33;4.30;98.40
53208;DHT22;39093;52.788;6.940;2023-02-26T17:31:06;4.20;98.30
53208;DHT22;39093;52.788;6.940;2023-02-26T17:33:33;4.20;98.40
53208;DHT22;39093;52.788;6.940;2023-02-26T17:36:02;4.50;98.70
53208;DHT22;39093;52.788;6.940;2023-02-26T17:38:29;4.10;98.70
53208;DHT22;39093;52.788;6.940;2023-02-26T17:40:59;4.10;98.80
53208;DHT22;39093;52.788;6.940;2023-02-26T17:43:26;4.30;99.40
53208;DHT22;39093;52.788;6.940;2023-02-26T17:45:54;4.10;99.70
53208;DHT22;39093;52.788;6.940;2023-02-26T17:48:22;4.10;99.90
53208;DHT22;39093;52.788;6.940;2023-02-26T17:50:53;4.10;99.90
53208;DHT22;39093;52.788;6.940;2023-02-26T17:53:22;4.10;99.60
53208;DHT22;39093;52.788;6.940;2023-02-26T17:55:50;4.00;99.60
53208;DHT22;39093;52.788;6.940;2023-02-26T17:58:39;4.00;99.90
53208;DHT22;39093;52.788;6.940;2023-02-26T18:01:06;4.10;99.90
53208;DHT22;39093;52.788;6.940;2023-02-26T18:03:34;4.00;99.90
53208;DHT22;39093;52.788;6.940;2023-02-26T18:06:01;4.00;99.90
53208;DHT22;39093;52.788;6.940;2023-02-26T18:08:31;4.00;99.90
53208;DHT22;39093;52.788;6.940;2023-02-26T18:11:02;4.20;99.90
53208;DHT22;39093;52.788;6.940;2023-02-26T18:13:32;4.00;99.90
53208;DHT22;39093;52.788;6.940;2023-02-26T18:15:59;3.90;99.90
53208;DHT22;39093;52.788;6.940;2023-02-26T18:18:29;4.00;99.90
53208;DHT22;39093;52.788;6.940;2023-02-26T18:20:56;4.30;99.90
53208;DHT22;39093;52.788;6.940;2023-02-26T18:23:23;4.00;99.90
53208;DHT22;39093;52.788;6.940;2023-02-26T18:25:53;4.00;99.90
53208;DHT22;39093;52.788;6.940;2023-02-26T18:28:25;3.90;99.90
53208;DHT22;39093;52.788;6.940;2023-02-26T18:30:54;3.90;99.90
53208;DHT22;39093;52.788;6.940;2023-02-26T18:33:21;4.00;99.90
53208;DHT22;39093;52.788;6.940;2023-02-26T18:35:51;4.30;99.90
53208;DHT22;39093;52.788;6.940;2023-02-26T18:38:25;3.90;99.90
53208;DHT22;39093;52.788;6.940;2023-02-26T18:40:52;3.90;99.90
53208;DHT22;39093;52.788;6.940;2023-02-26T18:43:19;3.90;99.90
53208;DHT22;39093;52.788;6.940;2023-02-26T18:45:48;4.20;99.90
53208;DHT22;39093;52.788;6.940;2023-02-26T18:48:17;4.20;99.90
53208;DHT22;39093;52.788;6.940;2023-02-26T18:50:45;3.90;99.90
53208;DHT22;39093;52.788;6.940;2023-02-26T18:53:13;3.60;99.90
53208;DHT22;39093;52.788;6.940;2023-02-26T18:55:43;3.80;99.90